Innsbruck, Austria
Current Conditions -  °F | °C
As of 9:20 AM on Saturday 25 Oct 2014 (Local Time) from LOWI Reporting Station
Scattered Clouds Scattered Clouds  
Wind Chill: 36°   Ceiling: Unl
Heat Index: 36°   Visibility: 6mi
Dew Point: 34°   Wind: 3mph
Humidity: 93%   Direction: 280°W
Pressure: 30.21"   Gusts: NA
Location:  47.28°N, 11.41°E
Report Text: LOWI 250720Z 28003KT 9999 FEW007 SCT160 02/01 Q1023 NOSIG
Loading
Personal Weather Stations






























Interactive Weather Map
Tropical Storm Tracking
New forecast layout! Learn more

10-Day Weather Forecast

Advertisements
Track Severe Weather on mobile